Aérodrome :
LOGIN :

S'inscrire | Disclaimer

   EN    FR    IT 

 










Légende :    VFR   VFR Marginal   IFR   IFR Intensif   IFR Très Intensif
Visi : 
Plafond : 
>= 8 km
>= 3000ft
5 à 8 km
1000 à 3000 ft
1500m à 5 km
500 à 1000 ft
800 à 1500m
200 à 500 ft
< 800m
< 200 ft
Symboles :   Orages  Brouillard  Fortes neiges  Fortes précipitations  Vent > 20 kt
SIGMETs :   Divers  Orages  Givrage  Turbulence  Onde Orograph.  Cendres Volcan.







- Altitude de l'aérodrome : 885 ft
- Code IATA : BAS
- Voir les cartes d'approche


LFSB - Bale-Mulhouse

DERNIER METAR :
  • 221730Z 29008KT CAVOK 25/06 Q1014 NOSIG

METARs EXPIRÉS :
  • 221700Z 28008KT CAVOK 26/07 Q1013 TEMPO FEW080TCU
  • 221630Z 27010KT CAVOK 27/08 Q1013 NOSIG
  • 221600Z 24007KT 210V270 CAVOK 28/07 Q1013 NOSIG
  • 221530Z 26008KT 210V330 CAVOK 28/07 Q1013 NOSIG
  • 221500Z 26009KT 190V300 CAVOK 28/06 Q1013 NOSIG

TAF TAF LFSB
Valide du 22 à 18h jusqu'au 23 à 18h UTC


221700Z 2218/2318 25007KT CAVOK
PROB30
TEMPO 2218/2220 FEW080TCU
BECMG 2221/2224 VRB03KT
BECMG 2307/2309 28010KT
TEMPO 2310/2318 30010G20KT 4000 SHRA SCT060CB
PROB40
TEMPO 2312/2318 2500 TSRA
Météo : +33 3 89 90 31 11
Pas de NOTAMs connus pour ce terrain.



MET'MAP, la Météo Aéronautique d'un coup d'oeil ! - Copyright ORBIFLY Décembre 2007 - Disclaimer

ORBIFLY MET'MAP TEAM :

Programmation & Développement : Alexandra Zaïnal
Conception & Développement : Baudouin d'Aumeries
Co-Programmation & Développement : Marc-Olivier Méhu
Soutien technique & logistique : Manuel Goepfert

Contact : metmap@orbifly.com




SOURCES & CREDITS :

   NOAA